Time;durP1;ratioP1;P1;durP2;ratioP2;P2;SDS_P1;SDS_P2;PMS_P1;PMS_P2;Temp;Humidity;BMP_temperature;BMP_pressure;BME280_temperature;BME280_humidity;BME280_pressure;Samples;Min_cycle;Max_cycle;Signal;HPM_P1;HPM_P2
2023/10/25 00:00:54;;;;;;;0.10;0.10;;;;;;;;;;4904356;29;20046;-88
2023/10/25 00:03:20;;;;;;;0.80;0.22;;;;;;;;;;4904287;29;20536;-88
2023/10/25 00:05:46;;;;;;;0.10;0.10;;;;;;;;;;4904481;29;20043;-88
2023/10/25 00:08:11;;;;;;;0.10;0.10;;;;;;;;;;4904223;29;20510;-87
2023/10/25 00:10:38;;;;;;;0.10;0.10;;;;;;;;;;4919996;29;20087;-88
2023/10/25 00:13:04;;;;;;;0.10;0.10;;;;;;;;;;4919814;29;20047;-88
2023/10/25 00:15:31;;;;;;;0.10;0.10;;;;;;;;;;4904076;29;20515;-88
2023/10/25 00:17:56;;;;;;;0.10;0.10;;;;;;;;;;4904138;29;20098;-88
2023/10/25 00:20:22;;;;;;;0.40;0.40;;;;;;;;;;4903916;29;20505;-87
2023/10/25 00:22:48;;;;;;;0.20;0.20;;;;;;;;;;4904233;29;20107;-86
2023/10/25 00:25:14;;;;;;;0.10;0.10;;;;;;;;;;4903354;29;20421;-87
2023/10/25 00:27:40;;;;;;;0.10;0.10;;;;;;;;;;4919229;29;20134;-88
2023/10/25 00:30:07;;;;;;;0.10;0.10;;;;;;;;;;4903749;29;20134;-87
2023/10/25 00:32:33;;;;;;;0.10;0.10;;;;;;;;;;4903782;29;20054;-88
2023/10/25 00:34:59;;;;;;;0.20;0.20;;;;;;;;;;4903926;29;20055;-88
2023/10/25 00:37:25;;;;;;;0.20;0.20;;;;;;;;;;4919591;29;20067;-88
2023/10/25 00:39:51;;;;;;;0.10;0.10;;;;;;;;;;4919325;29;20228;-87
2023/10/25 00:42:17;;;;;;;0.10;0.10;;;;;;;;;;4903608;29;20590;-87
2023/10/25 00:44:43;;;;;;;0.10;0.10;;;;;;;;;;4919299;29;20396;-87
2023/10/25 00:47:08;;;;;;;0.10;0.10;;;;;;;;;;4903295;29;20070;-88
2023/10/25 00:49:34;;;;;;;0.15;0.15;;;;;;;;;;4919069;29;20071;-87
2023/10/25 00:52:00;;;;;;;0.10;0.10;;;;;;;;;;4903352;29;20035;-87
2023/10/25 00:54:26;;;;;;;0.10;0.10;;;;;;;;;;4903354;29;20494;-87
2023/10/25 00:56:53;;;;;;;0.10;0.10;;;;;;;;;;4903144;29;20048;-87
2023/10/25 00:59:19;;;;;;;0.10;0.10;;;;;;;;;;4903372;29;20067;-87
2023/10/25 01:01:45;;;;;;;0.10;0.10;;;;;;;;;;4903350;29;20047;-87
2023/10/25 01:04:11;;;;;;;0.10;0.10;;;;;;;;;;4903284;29;20047;-87
2023/10/25 01:06:37;;;;;;;0.10;0.10;;;;;;;;;;4903372;29;20082;-87
2023/10/25 01:09:03;;;;;;;0.20;0.20;;;;;;;;;;4903061;29;20094;-87
2023/10/25 01:11:29;;;;;;;0.20;0.20;;;;;;;;;;4903150;29;20497;-87
2023/10/25 01:13:55;;;;;;;0.10;0.10;;;;;;;;;;4902996;29;20054;-87
2023/10/25 01:16:21;;;;;;;0.20;0.20;;;;;;;;;;4902795;29;20044;-87
2023/10/25 01:18:47;;;;;;;0.10;0.10;;;;;;;;;;4902751;29;20122;-87
2023/10/25 01:21:13;;;;;;;0.10;0.10;;;;;;;;;;4918568;29;20405;-87
2023/10/25 01:23:39;;;;;;;0.10;0.10;;;;;;;;;;4902654;29;20122;-88
2023/10/25 01:26:05;;;;;;;0.10;0.10;;;;;;;;;;4902917;29;20449;-87
2023/10/25 01:28:31;;;;;;;0.10;0.10;;;;;;;;;;4918616;29;20099;-88
2023/10/25 01:30:57;;;;;;;0.10;0.10;;;;;;;;;;4902850;29;20520;-88
2023/10/25 01:33:23;;;;;;;0.10;0.10;;;;;;;;;;4918415;29;20126;-88
2023/10/25 01:35:50;;;;;;;0.10;0.10;;;;;;;;;;4918391;29;20043;-88
2023/10/25 01:38:16;;;;;;;0.10;0.10;;;;;;;;;;4902122;29;20047;-88
2023/10/25 01:40:42;;;;;;;0.10;0.10;;;;;;;;;;4918642;29;20047;-88
2023/10/25 01:43:08;;;;;;;0.10;0.10;;;;;;;;;;4902472;29;20039;-87
2023/10/25 01:45:34;;;;;;;0.10;0.10;;;;;;;;;;4918161;29;20512;-87
2023/10/25 01:48:00;;;;;;;0.10;0.10;;;;;;;;;;4902390;29;20062;-87
2023/10/25 01:50:26;;;;;;;0.10;0.10;;;;;;;;;;4902500;29;20044;-87
2023/10/25 01:52:52;;;;;;;5.57;1.10;;;;;;;;;;4918111;29;20047;-88
2023/10/25 01:55:18;;;;;;;0.10;0.10;;;;;;;;;;4918133;29;20082;-87
2023/10/25 01:57:44;;;;;;;0.10;0.10;;;;;;;;;;4902471;29;20039;-87
2023/10/25 02:00:10;;;;;;;0.15;0.15;;;;;;;;;;4902646;29;20107;-87
2023/10/25 02:02:36;;;;;;;0.10;0.10;;;;;;;;;;4917893;29;20374;-88
2023/10/25 02:05:02;;;;;;;0.10;0.10;;;;;;;;;;4902873;29;20051;-95
2023/10/25 02:07:28;;;;;;;0.10;0.10;;;;;;;;;;4903120;29;20560;-88
2023/10/25 02:09:54;;;;;;;0.10;0.10;;;;;;;;;;4917944;29;20083;-88
2023/10/25 02:12:21;;;;;;;0.10;0.10;;;;;;;;;;4902572;29;20053;-88
2023/10/25 02:14:47;;;;;;;0.10;0.10;;;;;;;;;;4902271;29;20134;-88
2023/10/25 02:17:14;;;;;;;0.10;0.10;;;;;;;;;;4901957;29;20036;-88
2023/10/25 02:19:40;;;;;;;0.10;0.10;;;;;;;;;;4917906;29;20048;-88
2023/10/25 02:22:06;;;;;;;0.10;0.10;;;;;;;;;;4902457;29;20047;-88
2023/10/25 02:24:32;;;;;;;0.10;0.10;;;;;;;;;;4902023;29;20063;-88
2023/10/25 02:26:58;;;;;;;0.20;0.20;;;;;;;;;;4901893;29;20054;-88
2023/10/25 02:29:24;;;;;;;0.10;0.10;;;;;;;;;;4902084;29;20122;-88
2023/10/25 02:31:51;;;;;;;0.10;0.10;;;;;;;;;;4902325;29;20052;-88
2023/10/25 02:34:17;;;;;;;0.10;0.10;;;;;;;;;;4902167;29;20048;-87
2023/10/25 02:36:43;;;;;;;0.10;0.10;;;;;;;;;;4901994;29;20410;-87
2023/10/25 02:39:10;;;;;;;0.10;0.10;;;;;;;;;;4917622;29;20044;-87
2023/10/25 02:41:36;;;;;;;0.10;0.10;;;;;;;;;;4902022;29;20057;-87
2023/10/25 02:44:02;;;;;;;0.20;0.20;;;;;;;;;;4917840;29;20099;-87
2023/10/25 02:46:28;;;;;;;0.38;0.38;;;;;;;;;;4901661;29;20079;-87
2023/10/25 02:48:54;;;;;;;0.10;0.10;;;;;;;;;;4902402;29;20047;-87
2023/10/25 02:51:20;;;;;;;0.10;0.10;;;;;;;;;;4921476;29;20044;-87
2023/10/25 02:53:46;;;;;;;0.10;0.10;;;;;;;;;;4921237;29;20047;-87
2023/10/25 02:56:12;;;;;;;0.10;0.10;;;;;;;;;;4921244;29;20352;-87
2023/10/25 02:58:38;;;;;;;0.20;0.20;;;;;;;;;;4905657;29;20188;-87
2023/10/25 03:01:04;;;;;;;0.20;0.20;;;;;;;;;;4905592;29;20066;-87
2023/10/25 03:03:30;;;;;;;0.10;0.10;;;;;;;;;;4905472;29;20044;-87
2023/10/25 03:05:56;;;;;;;0.10;0.10;;;;;;;;;;4905693;29;20070;-87
2023/10/25 03:08:23;;;;;;;0.10;0.10;;;;;;;;;;4905326;29;20556;-87
2023/10/25 03:10:48;;;;;;;0.10;0.10;;;;;;;;;;4905461;29;20047;-87
2023/10/25 03:13:15;;;;;;;0.10;0.10;;;;;;;;;;4905198;29;20055;-87
2023/10/25 03:15:41;;;;;;;0.10;0.10;;;;;;;;;;4905050;29;20047;-87
2023/10/25 03:18:07;;;;;;;0.17;0.17;;;;;;;;;;4905210;29;20374;-87
2023/10/25 03:20:33;;;;;;;0.10;0.10;;;;;;;;;;4905159;29;20039;-87
2023/10/25 03:22:59;;;;;;;0.10;0.10;;;;;;;;;;4905142;29;20083;-87
2023/10/25 03:25:25;;;;;;;0.10;0.10;;;;;;;;;;4904806;29;20134;-87
2023/10/25 03:27:51;;;;;;;0.75;0.22;;;;;;;;;;4905086;29;20414;-87
2023/10/25 03:30:18;;;;;;;0.10;0.10;;;;;;;;;;4904713;29;20070;-86
2023/10/25 03:32:44;;;;;;;0.10;0.10;;;;;;;;;;4904875;29;20450;-88
2023/10/25 03:35:10;;;;;;;0.10;0.10;;;;;;;;;;4920433;29;20060;-87
2023/10/25 03:37:39;;;;;;;0.20;0.20;;;;;;;;;;4904747;29;20462;-87
2023/10/25 03:40:14;;;;;;;0.20;0.20;;;;;;;;;;4905228;29;20044;-88
2023/10/25 03:42:40;;;;;;;0.10;0.10;;;;;;;;;;4905022;29;20046;-87
2023/10/25 03:45:06;;;;;;;0.20;0.20;;;;;;;;;;4904743;29;20126;-87
2023/10/25 03:47:34;;;;;;;0.20;0.20;;;;;;;;;;4920266;29;20058;-87
2023/10/25 03:50:01;;;;;;;0.10;0.10;;;;;;;;;;4912850;29;20058;-88
2023/10/25 03:52:27;;;;;;;0.10;0.10;;;;;;;;;;4920345;29;20086;-88
2023/10/25 03:54:53;;;;;;;0.20;0.20;;;;;;;;;;4904641;29;20075;-88
2023/10/25 03:57:19;;;;;;;0.10;0.10;;;;;;;;;;4904307;29;20188;-87
2023/10/25 03:59:45;;;;;;;0.10;0.10;;;;;;;;;;4904573;29;20039;-87
2023/10/25 04:02:11;;;;;;;0.25;0.25;;;;;;;;;;4903752;29;20079;-87
2023/10/25 04:04:37;;;;;;;0.20;0.20;;;;;;;;;;4904526;29;20040;-87
2023/10/25 04:07:03;;;;;;;0.20;0.20;;;;;;;;;;4920144;29;20039;-87
2023/10/25 04:09:29;;;;;;;0.10;0.10;;;;;;;;;;4919973;29;20055;-87
2023/10/25 04:11:55;;;;;;;0.10;0.10;;;;;;;;;;4919903;29;20489;-87
2023/10/25 04:14:21;;;;;;;0.30;0.30;;;;;;;;;;4904363;29;20078;-87
2023/10/25 04:16:47;;;;;;;0.10;0.10;;;;;;;;;;4904036;29;20044;-87
2023/10/25 04:19:13;;;;;;;0.10;0.10;;;;;;;;;;4919759;29;20123;-87
2023/10/25 04:21:39;;;;;;;0.10;0.10;;;;;;;;;;4904041;29;20167;-87
2023/10/25 04:24:05;;;;;;;0.10;0.10;;;;;;;;;;4903971;29;20111;-88
2023/10/25 04:26:31;;;;;;;0.10;0.10;;;;;;;;;;4919395;29;20075;-88
2023/10/25 04:28:57;;;;;;;0.10;0.10;;;;;;;;;;4903866;29;20493;-88
2023/10/25 04:31:23;;;;;;;0.80;0.35;;;;;;;;;;4904281;29;20099;-88
2023/10/25 04:33:49;;;;;;;0.20;0.20;;;;;;;;;;4903929;29;20044;-87
2023/10/25 04:36:15;;;;;;;0.17;0.17;;;;;;;;;;4919341;29;20127;-88
2023/10/25 04:38:42;;;;;;;0.10;0.10;;;;;;;;;;4919328;29;20040;-88
2023/10/25 04:41:08;;;;;;;0.10;0.10;;;;;;;;;;4919352;29;20552;-88
2023/10/25 04:43:34;;;;;;;0.20;0.20;;;;;;;;;;4903734;29;20047;-87
2023/10/25 04:46:00;;;;;;;0.20;0.20;;;;;;;;;;4903574;29;20043;-88
2023/10/25 04:48:26;;;;;;;0.10;0.10;;;;;;;;;;4903685;29;20069;-87
2023/10/25 04:50:52;;;;;;;0.22;0.22;;;;;;;;;;4919466;29;20055;-88
2023/10/25 04:53:18;;;;;;;0.10;0.10;;;;;;;;;;4919162;29;20044;-88
2023/10/25 04:55:45;;;;;;;0.10;0.10;;;;;;;;;;4903432;29;20044;-88
2023/10/25 04:58:11;;;;;;;0.10;0.10;;;;;;;;;;4903455;29;20043;-88
2023/10/25 05:00:37;;;;;;;0.10;0.10;;;;;;;;;;4903362;29;20461;-87
2023/10/25 05:03:05;;;;;;;0.20;0.20;;;;;;;;;;4903184;29;20040;-87
2023/10/25 05:05:32;;;;;;;0.20;0.20;;;;;;;;;;4903090;29;20130;-87
2023/10/25 05:07:58;;;;;;;0.73;0.47;;;;;;;;;;4903104;29;20126;-87
2023/10/25 05:10:24;;;;;;;0.25;0.25;;;;;;;;;;4918842;29;20043;-87
2023/10/25 05:12:51;;;;;;;0.10;0.10;;;;;;;;;;4902934;29;20044;-87
2023/10/25 05:15:17;;;;;;;0.10;0.10;;;;;;;;;;4903213;29;20156;-87
2023/10/25 05:17:44;;;;;;;0.17;0.17;;;;;;;;;;4918658;29;20123;-87
2023/10/25 05:20:10;;;;;;;0.10;0.10;;;;;;;;;;4918640;29;20047;-87
2023/10/25 05:22:39;;;;;;;0.20;0.20;;;;;;;;;;4902778;29;20095;-88
2023/10/25 05:25:06;;;;;;;0.10;0.10;;;;;;;;;;4918380;29;20087;-87
2023/10/25 05:27:32;;;;;;;0.10;0.10;;;;;;;;;;4902727;29;20114;-87
2023/10/25 05:30:04;;;;;;;0.10;0.10;;;;;;;;;;4903034;29;20126;-87
2023/10/25 05:32:33;;;;;;;0.20;0.20;;;;;;;;;;4903706;29;20139;-87
2023/10/25 05:35:00;;;;;;;0.20;0.20;;;;;;;;;;4902597;29;20126;-87
2023/10/25 05:37:26;;;;;;;0.38;0.20;;;;;;;;;;4902854;29;20547;-87
2023/10/25 05:39:53;;;;;;;0.10;0.10;;;;;;;;;;4918162;29;20505;-87
2023/10/25 05:42:20;;;;;;;0.10;0.10;;;;;;;;;;4902515;29;20094;-87
2023/10/25 05:44:51;;;;;;;0.10;0.10;;;;;;;;;;4918227;29;20122;-88
2023/10/25 05:47:17;;;;;;;0.10;0.10;;;;;;;;;;4902359;29;20046;-87
2023/10/25 05:49:43;;;;;;;0.20;0.20;;;;;;;;;;4902309;29;20051;-87
2023/10/25 05:52:10;;;;;;;0.10;0.10;;;;;;;;;;4902447;29;20366;-88
2023/10/25 05:54:36;;;;;;;0.10;0.10;;;;;;;;;;4902831;29;20044;-88
2023/10/25 05:57:03;;;;;;;0.10;0.10;;;;;;;;;;4902267;29;20090;-88
2023/10/25 05:59:29;;;;;;;0.10;0.10;;;;;;;;;;4902731;29;20493;-88
2023/10/25 06:01:57;;;;;;;0.10;0.10;;;;;;;;;;4902342;29;20046;-87
2023/10/25 06:04:24;;;;;;;0.20;0.20;;;;;;;;;;4902215;29;20044;-87
2023/10/25 06:06:50;;;;;;;0.10;0.10;;;;;;;;;;4902213;29;20044;-87
2023/10/25 06:09:16;;;;;;;0.30;0.30;;;;;;;;;;4917852;29;20095;-87
2023/10/25 06:11:42;;;;;;;0.10;0.10;;;;;;;;;;4917811;29;20044;-86
2023/10/25 06:14:08;;;;;;;0.10;0.10;;;;;;;;;;4917780;29;20087;-86
2023/10/25 06:16:34;;;;;;;0.30;0.30;;;;;;;;;;4902253;29;20182;-86
2023/10/25 06:19:00;;;;;;;0.10;0.10;;;;;;;;;;4917817;29;20513;-86
2023/10/25 06:21:26;;;;;;;0.40;0.40;;;;;;;;;;4918026;29;20130;-86
2023/10/25 06:23:52;;;;;;;0.20;0.20;;;;;;;;;;4903694;29;20056;-86
2023/10/25 06:26:18;;;;;;;0.30;0.20;;;;;;;;;;4908395;29;20058;-86
2023/10/25 06:28:45;;;;;;;0.20;0.20;;;;;;;;;;4908409;29;20544;-86
2023/10/25 06:31:11;;;;;;;0.20;0.20;;;;;;;;;;4908338;29;20048;-86
2023/10/25 06:33:37;;;;;;;0.10;0.10;;;;;;;;;;4923817;29;20043;-86
2023/10/25 06:36:03;;;;;;;0.10;0.10;;;;;;;;;;4908473;29;20075;-86
2023/10/25 06:38:29;;;;;;;0.20;0.20;;;;;;;;;;4908235;29;20051;-86
2023/10/25 06:40:56;;;;;;;0.60;0.30;;;;;;;;;;4908332;29;20248;-86
2023/10/25 06:43:22;;;;;;;0.10;0.10;;;;;;;;;;4924261;29;20055;-86
2023/10/25 06:45:48;;;;;;;0.10;0.10;;;;;;;;;;4908144;29;20075;-86
2023/10/25 06:48:14;;;;;;;0.10;0.10;;;;;;;;;;4908008;29;20110;-86
2023/10/25 06:50:40;;;;;;;0.10;0.10;;;;;;;;;;4908088;29;20085;-86
2023/10/25 06:53:06;;;;;;;0.10;0.10;;;;;;;;;;4908129;29;20043;-87
2023/10/25 06:55:32;;;;;;;0.10;0.10;;;;;;;;;;4908124;29;20091;-88
2023/10/25 06:57:59;;;;;;;0.10;0.10;;;;;;;;;;4908262;29;20048;-87
2023/10/25 07:00:25;;;;;;;0.10;0.10;;;;;;;;;;4907971;29;20086;-90
2023/10/25 07:02:52;;;;;;;0.20;0.20;;;;;;;;;;4908860;29;20043;-87
2023/10/25 07:05:19;;;;;;;0.10;0.10;;;;;;;;;;4908015;29;20051;-86
2023/10/25 07:07:45;;;;;;;0.10;0.10;;;;;;;;;;4908154;29;20106;-87
2023/10/25 07:10:12;;;;;;;0.10;0.10;;;;;;;;;;4923963;29;20131;-88
2023/10/25 07:12:38;;;;;;;0.10;0.10;;;;;;;;;;4908596;29;20048;-92
2023/10/25 07:15:05;;;;;;;0.90;0.90;;;;;;;;;;4923950;29;20055;-88
2023/10/25 07:17:31;;;;;;;0.10;0.10;;;;;;;;;;4923610;29;20122;-88
2023/10/25 07:19:58;;;;;;;0.10;0.10;;;;;;;;;;4908294;29;20127;-89
2023/10/25 07:22:25;;;;;;;0.10;0.10;;;;;;;;;;4908112;29;20408;-88
2023/10/25 07:24:51;;;;;;;0.10;0.10;;;;;;;;;;4907815;29;20055;-87
2023/10/25 07:27:17;;;;;;;0.20;0.20;;;;;;;;;;4923415;29;20512;-91
2023/10/25 07:29:43;;;;;;;0.20;0.20;;;;;;;;;;4907621;29;20039;-88
2023/10/25 07:32:09;;;;;;;0.28;0.28;;;;;;;;;;4908104;29;20179;-88
2023/10/25 07:34:35;;;;;;;0.10;0.10;;;;;;;;;;4908013;29;20040;-87
2023/10/25 07:37:01;;;;;;;0.10;0.10;;;;;;;;;;4904730;29;20501;-88
2023/10/25 07:39:27;;;;;;;0.10;0.10;;;;;;;;;;4904947;29;20046;-89
2023/10/25 07:41:53;;;;;;;0.10;0.10;;;;;;;;;;4904826;29;20130;-89
2023/10/25 07:44:19;;;;;;;0.20;0.20;;;;;;;;;;4920584;29;20044;-89
2023/10/25 07:46:45;;;;;;;0.10;0.10;;;;;;;;;;4904823;29;20086;-88
2023/10/25 07:49:11;;;;;;;0.10;0.10;;;;;;;;;;4904768;29;20082;-89
2023/10/25 07:51:37;;;;;;;0.10;0.10;;;;;;;;;;4920455;29;20130;-88
2023/10/25 07:54:03;;;;;;;0.10;0.10;;;;;;;;;;4904547;29;20062;-88
2023/10/25 07:56:29;;;;;;;0.10;0.10;;;;;;;;;;4904511;29;20091;-89
2023/10/25 07:58:55;;;;;;;0.10;0.10;;;;;;;;;;4904491;29;20406;-90
2023/10/25 08:01:21;;;;;;;0.15;0.15;;;;;;;;;;4904511;29;20075;-90
2023/10/25 08:03:47;;;;;;;0.10;0.10;;;;;;;;;;4904716;29;20040;-89
2023/10/25 08:06:13;;;;;;;0.10;0.10;;;;;;;;;;4904446;29;20044;-88
2023/10/25 08:08:39;;;;;;;0.10;0.10;;;;;;;;;;4904522;29;20046;-90
2023/10/25 08:11:05;;;;;;;0.10;0.10;;;;;;;;;;4904481;29;20043;-90
2023/10/25 08:13:31;;;;;;;0.10;0.10;;;;;;;;;;4904461;29;20405;-88
2023/10/25 08:15:58;;;;;;;0.10;0.10;;;;;;;;;;4904369;29;20040;-91
2023/10/25 08:18:24;;;;;;;0.10;0.10;;;;;;;;;;4892308;29;20044;-89
2023/10/25 08:20:50;;;;;;;0.20;0.20;;;;;;;;;;4882340;29;20123;-88
2023/10/25 08:23:16;;;;;;;0.10;0.10;;;;;;;;;;4882366;29;20052;-87
2023/10/25 08:25:42;;;;;;;0.20;0.20;;;;;;;;;;4897496;29;20064;-87
2023/10/25 08:28:08;;;;;;;0.10;0.10;;;;;;;;;;4913157;29;20108;-87
2023/10/25 08:30:34;;;;;;;0.20;0.20;;;;;;;;;;4882169;29;20508;-88
2023/10/25 08:33:00;;;;;;;0.10;0.10;;;;;;;;;;4851547;29;20044;-88
2023/10/25 08:35:26;;;;;;;0.20;0.20;;;;;;;;;;4851723;29;20490;-93
2023/10/25 08:37:53;;;;;;;0.10;0.10;;;;;;;;;;4883189;29;20048;-96
2023/10/25 08:40:19;;;;;;;0.17;0.17;;;;;;;;;;4899393;29;20131;-91
2023/10/25 08:42:45;;;;;;;0.10;0.10;;;;;;;;;;4852148;29;20095;-91
2023/10/25 08:45:11;;;;;;;0.10;0.10;;;;;;;;;;4898989;29;20446;-91
2023/10/25 08:47:39;;;;;;;0.10;0.10;;;;;;;;;;4866917;29;20127;-92
2023/10/25 08:50:05;;;;;;;0.17;0.17;;;;;;;;;;4914116;29;20056;-92
2023/10/25 08:52:31;;;;;;;0.10;0.10;;;;;;;;;;4882811;29;20482;-93
2023/10/25 08:54:57;;;;;;;0.10;0.10;;;;;;;;;;4851842;29;20051;-92
2023/10/25 08:57:25;;;;;;;0.10;0.10;;;;;;;;;;4867368;29;20136;-93
2023/10/25 08:59:51;;;;;;;0.10;0.10;;;;;;;;;;4851831;29;20408;-92
2023/10/25 09:02:17;;;;;;;0.10;0.10;;;;;;;;;;4851764;29;20076;-93
2023/10/25 09:04:59;;;;;;;0.10;0.10;;;;;;;;;;4882857;29;20108;-93
2023/10/25 09:07:32;;;;;;;0.10;0.10;;;;;;;;;;4851452;29;20045;-92
2023/10/25 09:09:58;;;;;;;0.13;0.13;;;;;;;;;;4882429;29;20281;-93
2023/10/25 09:12:24;;;;;;;0.10;0.10;;;;;;;;;;4882715;29;20507;-94
2023/10/25 09:14:50;;;;;;;0.10;0.10;;;;;;;;;;4851922;29;20052;-95
2023/10/25 09:17:16;;;;;;;0.10;0.10;;;;;;;;;;4851639;29;20402;-92
2023/10/25 09:19:43;;;;;;;0.10;0.10;;;;;;;;;;4885217;29;20040;-91
2023/10/25 09:22:26;;;;;;;0.10;0.10;;;;;;;;;;4900329;29;20050;-91
2023/10/25 09:24:55;;;;;;;0.10;0.10;;;;;;;;;;4900220;29;20056;-91
2023/10/25 09:27:22;;;;;;;0.10;0.10;;;;;;;;;;4916060;29;20430;-90
2023/10/25 09:29:48;;;;;;;0.20;0.20;;;;;;;;;;4899920;29;20060;-90
2023/10/25 09:32:14;;;;;;;0.10;0.10;;;;;;;;;;4901055;29;20283;-89
2023/10/25 09:34:40;;;;;;;0.10;0.10;;;;;;;;;;4885254;29;20044;-89
2023/10/25 09:37:09;;;;;;;0.20;0.20;;;;;;;;;;4880795;29;20054;-89
2023/10/25 09:39:39;;;;;;;0.10;0.10;;;;;;;;;;4881560;29;20593;-90
2023/10/25 09:42:06;;;;;;;0.10;0.10;;;;;;;;;;4867572;29;20044;-93
2023/10/25 09:44:35;;;;;;;0.10;0.10;;;;;;;;;;4881003;29;20060;-89
2023/10/25 09:47:01;;;;;;;0.10;0.10;;;;;;;;;;4865791;29;20058;-93
2023/10/25 09:49:31;;;;;;;0.10;0.10;;;;;;;;;;4866722;29;20108;-94
2023/10/25 09:52:07;;;;;;;0.10;0.10;;;;;;;;;;4851709;29;20044;-94
2023/10/25 09:54:56;;;;;;;0.30;0.30;;;;;;;;;;4868875;29;20096;-96
2023/10/25 09:57:28;;;;;;;0.10;0.10;;;;;;;;;;4890081;29;20113;-96
2023/10/25 10:00:24;;;;;;;0.10;0.10;;;;;;;;;;4878253;29;20044;-94
2023/10/25 10:03:01;;;;;;;0.10;0.10;;;;;;;;;;4898086;29;20140;-94
2023/10/25 10:08:15;;;;;;;0.10;0.10;;;;;;;;;;4968177;23;20060;-96
2023/10/25 10:10:46;;;;;;;0.10;0.10;;;;;;;;;;4905433;29;20052;-96
2023/10/25 10:13:34;;;;;;;0.10;0.10;;;;;;;;;;5078552;23;20019;-96
2023/10/25 10:16:11;;;;;;;0.30;0.30;;;;;;;;;;5174328;23;20050;-94
2023/10/25 10:18:37;;;;;;;0.10;0.10;;;;;;;;;;4893950;29;20040;-96
2023/10/25 10:21:07;;;;;;;0.10;0.10;;;;;;;;;;4904721;29;20040;-94
2023/10/25 10:23:37;;;;;;;0.10;0.10;;;;;;;;;;4909631;29;20050;-96
2023/10/25 10:26:08;;;;;;;0.10;0.10;;;;;;;;;;4903362;29;20064;-93
2023/10/25 10:28:38;;;;;;;0.10;0.10;;;;;;;;;;4903464;29;20189;-94
2023/10/25 10:31:04;;;;;;;0.10;0.10;;;;;;;;;;4903629;29;20047;-92
2023/10/25 10:33:30;;;;;;;0.10;0.10;;;;;;;;;;4903755;29;20040;-93
2023/10/25 10:35:59;;;;;;;0.10;0.10;;;;;;;;;;4903232;29;20135;-93
2023/10/25 10:38:25;;;;;;;0.30;0.30;;;;;;;;;;4903427;29;20050;-92
2023/10/25 10:40:51;;;;;;;0.20;0.20;;;;;;;;;;4903507;29;20485;-94
2023/10/25 10:43:20;;;;;;;0.20;0.20;;;;;;;;;;4903554;29;20131;-94
2023/10/25 10:45:46;;;;;;;0.10;0.10;;;;;;;;;;4904102;29;20080;-94
2023/10/25 10:48:13;;;;;;;0.10;0.10;;;;;;;;;;4903314;29;20212;-95
2023/10/25 10:50:42;;;;;;;0.10;0.10;;;;;;;;;;4903244;29;20043;-94
2023/10/25 10:53:08;;;;;;;0.10;0.10;;;;;;;;;;4904519;29;20054;-92
2023/10/25 10:55:34;;;;;;;0.28;0.28;;;;;;;;;;4918306;29;20048;-92
2023/10/25 10:58:00;;;;;;;0.10;0.10;;;;;;;;;;4902771;29;20122;-92
2023/10/25 11:00:26;;;;;;;0.10;0.10;;;;;;;;;;4902927;29;20473;-92
2023/10/25 11:02:53;;;;;;;0.30;0.30;;;;;;;;;;4903060;29;20044;-91
2023/10/25 11:05:24;;;;;;;0.20;0.20;;;;;;;;;;4918662;29;20044;-93
2023/10/25 11:07:51;;;;;;;1.48;1.38;;;;;;;;;;4903922;29;20039;-91
2023/10/25 11:10:17;;;;;;;0.10;0.10;;;;;;;;;;4919802;29;20094;-90
2023/10/25 11:12:43;;;;;;;0.10;0.10;;;;;;;;;;4922217;29;20450;-91
2023/10/25 11:15:13;;;;;;;0.10;0.10;;;;;;;;;;4910324;29;20056;-93
2023/10/25 11:17:39;;;;;;;0.10;0.10;;;;;;;;;;4905711;29;20056;-92
2023/10/25 11:20:06;;;;;;;0.20;0.20;;;;;;;;;;4906838;29;20103;-93
2023/10/25 11:22:32;;;;;;;0.15;0.15;;;;;;;;;;4906468;29;20103;-94
2023/10/25 11:24:58;;;;;;;1.38;0.40;;;;;;;;;;4906907;29;20043;-92
2023/10/25 11:27:31;;;;;;;0.20;0.20;;;;;;;;;;4906322;29;20044;-93
2023/10/25 11:29:57;;;;;;;0.20;0.20;;;;;;;;;;4922262;29;20043;-94
2023/10/25 11:32:24;;;;;;;0.10;0.10;;;;;;;;;;4921157;29;20086;-92
2023/10/25 11:34:54;;;;;;;0.10;0.10;;;;;;;;;;4905889;29;20048;-91
2023/10/25 11:37:20;;;;;;;0.10;0.10;;;;;;;;;;4922051;29;20509;-92
2023/10/25 11:39:56;;;;;;;0.10;0.10;;;;;;;;;;4921354;29;20039;-91
2023/10/25 11:42:23;;;;;;;0.10;0.10;;;;;;;;;;4905061;29;20058;-91
2023/10/25 11:44:49;;;;;;;0.10;0.10;;;;;;;;;;4921389;29;20039;-90
2023/10/25 11:47:18;;;;;;;0.10;0.10;;;;;;;;;;4905866;29;20508;-92
2023/10/25 11:49:44;;;;;;;0.10;0.10;;;;;;;;;;4921363;29;20040;-91
2023/10/25 11:52:10;;;;;;;0.10;0.10;;;;;;;;;;4922356;29;20087;-92
2023/10/25 11:54:36;;;;;;;0.10;0.10;;;;;;;;;;4921695;29;20122;-92
2023/10/25 11:57:02;;;;;;;0.10;0.10;;;;;;;;;;4921217;29;20055;-94
2023/10/25 11:59:28;;;;;;;0.20;0.20;;;;;;;;;;4906243;29;20509;-93
2023/10/25 12:01:57;;;;;;;0.20;0.20;;;;;;;;;;4909259;29;20048;-96
2023/10/25 12:04:23;;;;;;;0.15;0.15;;;;;;;;;;4907456;29;20086;-95
2023/10/25 12:06:50;;;;;;;0.15;0.15;;;;;;;;;;4906306;29;20043;-95
2023/10/25 12:09:18;;;;;;;0.10;0.10;;;;;;;;;;4908381;29;20044;-95
2023/10/25 12:11:44;;;;;;;0.30;0.30;;;;;;;;;;4906094;29;20121;-93
2023/10/25 12:14:10;;;;;;;0.20;0.20;;;;;;;;;;4921133;29;20039;-92
2023/10/25 12:16:36;;;;;;;0.20;0.20;;;;;;;;;;4921020;29;20059;-92
2023/10/25 12:19:02;;;;;;;0.10;0.10;;;;;;;;;;4927746;29;20035;-91
2023/10/25 12:21:29;;;;;;;0.10;0.10;;;;;;;;;;4920061;29;20044;-92
2023/10/25 12:23:55;;;;;;;0.10;0.10;;;;;;;;;;4920756;29;20047;-90
2023/10/25 12:26:21;;;;;;;0.20;0.15;;;;;;;;;;4907316;29;20047;-90
2023/10/25 12:28:47;;;;;;;0.10;0.10;;;;;;;;;;4921513;29;20131;-92
2023/10/25 12:31:13;;;;;;;0.10;0.10;;;;;;;;;;4905835;29;20047;-92
2023/10/25 12:33:39;;;;;;;0.10;0.10;;;;;;;;;;4905810;29;20050;-92
2023/10/25 12:36:06;;;;;;;0.10;0.10;;;;;;;;;;4905551;29;20405;-91
2023/10/25 12:38:32;;;;;;;0.10;0.10;;;;;;;;;;4905762;29;20039;-93
2023/10/25 12:40:58;;;;;;;0.10;0.10;;;;;;;;;;4905817;29;20047;-93
2023/10/25 12:43:24;;;;;;;0.10;0.10;;;;;;;;;;4905557;29;20043;-94
2023/10/25 12:45:50;;;;;;;0.10;0.10;;;;;;;;;;4918410;29;20067;-93
2023/10/25 12:48:16;;;;;;;0.10;0.10;;;;;;;;;;4913159;29;20048;-91
2023/10/25 12:50:42;;;;;;;0.10;0.10;;;;;;;;;;4921884;29;20269;-91
2023/10/25 12:53:08;;;;;;;0.10;0.10;;;;;;;;;;4919915;29;20039;-93
2023/10/25 12:55:34;;;;;;;0.10;0.10;;;;;;;;;;4904352;29;20473;-92
2023/10/25 12:58:02;;;;;;;0.10;0.10;;;;;;;;;;4904611;29;20043;-93
2023/10/25 13:00:28;;;;;;;0.10;0.10;;;;;;;;;;4905384;29;20393;-92
2023/10/25 13:02:54;;;;;;;0.15;0.15;;;;;;;;;;4904434;29;20152;-91
2023/10/25 13:05:20;;;;;;;0.10;0.10;;;;;;;;;;4904610;29;20052;-92
2023/10/25 13:07:46;;;;;;;0.17;0.17;;;;;;;;;;4904361;29;20043;-91
2023/10/25 13:10:14;;;;;;;0.10;0.10;;;;;;;;;;4904233;29;20039;-91
2023/10/25 13:12:41;;;;;;;0.20;0.20;;;;;;;;;;4904431;29;20051;-91
2023/10/25 13:15:07;;;;;;;0.10;0.10;;;;;;;;;;4903799;29;20091;-92
2023/10/25 13:17:33;;;;;;;0.10;0.10;;;;;;;;;;4903888;29;20052;-92
2023/10/25 13:20:02;;;;;;;0.10;0.10;;;;;;;;;;4904203;29;20050;-93
2023/10/25 13:22:28;;;;;;;0.10;0.10;;;;;;;;;;4904096;29;20049;-92
2023/10/25 13:24:54;;;;;;;0.10;0.10;;;;;;;;;;4903876;29;20048;-88
2023/10/25 13:27:20;;;;;;;0.10;0.10;;;;;;;;;;4903428;29;20043;-92
2023/10/25 13:29:46;;;;;;;0.10;0.10;;;;;;;;;;4903164;29;20086;-91
2023/10/25 13:32:12;;;;;;;0.10;0.10;;;;;;;;;;4903491;29;20050;-91
2023/10/25 13:34:38;;;;;;;0.20;0.20;;;;;;;;;;4918703;29;20048;-91
2023/10/25 13:37:06;;;;;;;0.10;0.10;;;;;;;;;;4903067;29;20043;-92
2023/10/25 13:39:32;;;;;;;0.10;0.10;;;;;;;;;;4903077;29;20075;-91
2023/10/25 13:41:59;;;;;;;0.20;0.20;;;;;;;;;;4903413;29;20478;-91
2023/10/25 13:44:25;;;;;;;0.20;0.20;;;;;;;;;;4903720;29;20055;-91
2023/10/25 13:46:51;;;;;;;0.20;0.20;;;;;;;;;;4903434;29;20048;-92
2023/10/25 13:49:17;;;;;;;0.10;0.10;;;;;;;;;;4903228;29;20059;-92
2023/10/25 13:51:43;;;;;;;0.10;0.10;;;;;;;;;;4903342;29;20040;-92
2023/10/25 13:54:09;;;;;;;0.10;0.10;;;;;;;;;;4903500;29;20047;-91
2023/10/25 13:56:35;;;;;;;0.10;0.10;;;;;;;;;;4902654;29;20035;-90
2023/10/25 13:59:01;;;;;;;0.10;0.10;;;;;;;;;;4887371;29;20544;-91
2023/10/25 14:01:27;;;;;;;0.10;0.10;;;;;;;;;;4898969;29;20052;-90
2023/10/25 14:03:53;;;;;;;0.15;0.15;;;;;;;;;;4884517;29;20521;-91
2023/10/25 14:06:19;;;;;;;0.10;0.10;;;;;;;;;;4902773;29;20039;-92
2023/10/25 14:08:45;;;;;;;0.10;0.10;;;;;;;;;;4900038;29;20052;-92
2023/10/25 14:11:11;;;;;;;0.40;0.40;;;;;;;;;;4900142;29;20052;-91
2023/10/25 14:13:37;;;;;;;0.10;0.10;;;;;;;;;;4899812;29;20464;-90
2023/10/25 14:16:07;;;;;;;0.47;0.17;;;;;;;;;;4883832;29;20123;-90
2023/10/25 14:18:33;;;;;;;0.38;0.38;;;;;;;;;;4883718;29;20098;-90
2023/10/25 14:20:59;;;;;;;0.10;0.10;;;;;;;;;;4884077;29;20040;-90
2023/10/25 14:23:25;;;;;;;0.10;0.10;;;;;;;;;;4900428;29;20106;-92
2023/10/25 14:25:51;;;;;;;1.17;0.30;;;;;;;;;;4884375;29;20051;-91
2023/10/25 14:28:17;;;;;;;0.10;0.10;;;;;;;;;;4899848;29;20051;-92
2023/10/25 14:30:43;;;;;;;0.10;0.10;;;;;;;;;;4900157;29;20071;-93
2023/10/25 14:33:10;;;;;;;0.10;0.10;;;;;;;;;;4900240;29;20080;-91
2023/10/25 14:35:36;;;;;;;0.10;0.10;;;;;;;;;;4884114;29;20044;-92
2023/10/25 14:38:02;;;;;;;0.30;0.30;;;;;;;;;;4884768;29;20335;-91
2023/10/25 14:40:28;;;;;;;0.20;0.20;;;;;;;;;;4898678;29;20042;-91
2023/10/25 14:42:54;;;;;;;0.10;0.10;;;;;;;;;;4899736;29;20398;-92